createdAt,value
2022-10-23T01:46:47.132Z,13.90
2022-10-23T05:32:04.544Z,13.40
2022-10-23T05:43:07.908Z,13.40
2022-10-23T05:48:16.716Z,13.40
2022-10-23T05:53:24.519Z,13.50
2022-10-23T05:58:26.328Z,13.40
2022-10-23T06:03:28.110Z,13.40
2022-10-23T06:08:30.459Z,13.40
2022-10-23T06:13:32.292Z,13.40
2022-10-23T06:18:34.069Z,13.40
2022-10-23T06:23:39.722Z,13.30
2022-10-23T06:28:42.541Z,13.40
2022-10-23T06:33:44.376Z,13.40
2022-10-23T06:38:46.301Z,13.40
2022-10-23T06:43:49.272Z,13.30
2022-10-23T06:48:51.115Z,13.40
2022-10-23T06:53:52.938Z,13.40
2022-10-23T06:58:54.856Z,13.40
2022-10-23T07:03:56.643Z,13.40
2022-10-23T07:08:59.562Z,13.40
2022-10-23T07:14:01.371Z,13.50
2022-10-23T07:19:03.226Z,13.50
2022-10-23T07:24:05.705Z,13.50
2022-10-23T07:29:07.804Z,13.50
2022-10-23T07:34:10.607Z,13.60
2022-10-23T07:39:12.693Z,13.60
2022-10-23T07:44:14.907Z,13.70
2022-10-23T07:49:16.855Z,13.70
2022-10-23T07:54:18.794Z,13.80
2022-10-23T07:59:20.621Z,13.80
2022-10-23T08:04:22.912Z,13.80
2022-10-23T08:09:24.741Z,13.90
2022-10-23T08:14:27.055Z,14.00
2022-10-23T08:19:28.877Z,14.10
2022-10-23T08:24:30.646Z,14.10
2022-10-23T08:29:32.709Z,14.20
2022-10-23T08:34:34.520Z,14.30
2022-10-23T08:39:36.708Z,14.30
2022-10-23T08:44:59.415Z,14.40
2022-10-23T08:50:13.077Z,14.50
2022-10-23T08:55:23.947Z,14.50
2022-10-23T09:00:25.861Z,14.60
2022-10-23T09:05:33.467Z,14.60
2022-10-23T09:11:28.508Z,14.70
2022-10-23T09:16:51.344Z,14.70
2022-10-23T09:21:54.008Z,14.80
2022-10-23T09:26:55.846Z,14.80
2022-10-23T09:31:59.793Z,14.90
2022-10-23T09:37:04.412Z,15.00
2022-10-23T09:42:25.885Z,15.10
2022-10-23T09:47:28.557Z,15.10
2022-10-23T09:52:35.821Z,15.20
2022-10-23T09:57:41.733Z,15.20
2022-10-23T10:03:05.087Z,15.30
2022-10-23T10:08:25.531Z,15.40
2022-10-23T10:13:33.502Z,15.50
2022-10-23T10:18:53.079Z,15.50
2022-10-23T10:24:01.851Z,15.60
2022-10-23T10:29:30.244Z,15.70
2022-10-23T10:34:41.961Z,15.80
2022-10-23T10:40:16.203Z,15.90
2022-10-23T10:45:21.211Z,16.10
2022-10-23T10:51:03.102Z,16.20
2022-10-23T11:01:26.404Z,16.50
2022-10-23T11:06:31.283Z,16.60
2022-10-23T11:11:35.946Z,16.70
2022-10-23T11:16:39.593Z,16.80
2022-10-23T11:21:47.998Z,16.80
2022-10-23T11:27:03.417Z,16.90
2022-10-23T11:32:17.283Z,17.00
2022-10-23T11:37:20.092Z,17.10
2022-10-23T11:42:39.543Z,17.20
2022-10-23T11:47:42.998Z,17.40
2022-10-23T11:53:17.127Z,17.50
2022-10-23T11:58:26.277Z,17.60
2022-10-23T12:03:33.996Z,17.70
2022-10-23T12:08:37.923Z,17.80
2022-10-23T12:13:39.678Z,17.90
2022-10-23T12:18:50.810Z,18.00
2022-10-23T12:24:05.775Z,18.00
2022-10-23T12:29:40.938Z,18.00
2022-10-23T12:35:13.685Z,18.10
2022-10-23T12:40:15.558Z,18.10
2022-10-23T12:45:23.580Z,18.20
2022-10-23T12:50:27.962Z,18.30
2022-10-23T12:55:36.076Z,18.30
2022-10-23T13:00:38.079Z,18.30
2022-10-23T13:05:42.325Z,18.40
2022-10-23T13:10:44.248Z,18.50
2022-10-23T13:15:46.125Z,18.50
2022-10-23T13:20:53.902Z,18.60
2022-10-23T13:26:06.431Z,18.60
2022-10-23T13:31:12.265Z,18.70
2022-10-23T13:36:17.425Z,18.70
2022-10-23T13:41:19.963Z,18.70
2022-10-23T13:46:24.377Z,18.80
2022-10-23T13:51:28.309Z,18.90
2022-10-23T13:56:30.164Z,18.90
2022-10-23T14:01:35.948Z,19.00
2022-10-23T14:06:38.490Z,19.10
2022-10-23T14:11:40.821Z,19.10
2022-10-23T14:16:42.683Z,19.10
2022-10-23T14:21:44.602Z,19.20
2022-10-23T14:26:46.535Z,19.20
2022-10-23T14:31:48.339Z,19.20
2022-10-23T14:36:56.711Z,19.20
2022-10-23T14:42:05.842Z,19.10
2022-10-23T14:47:07.667Z,19.10
2022-10-23T14:52:09.470Z,19.10
2022-10-23T14:57:15.919Z,19.10
2022-10-23T15:02:17.854Z,19.10
2022-10-23T15:07:19.922Z,19.10
2022-10-23T15:12:21.808Z,19.00
2022-10-23T15:17:23.710Z,19.00
2022-10-23T15:22:25.699Z,19.00
2022-10-23T15:27:27.535Z,19.00
2022-10-23T15:32:29.557Z,18.90
2022-10-23T15:37:31.419Z,18.90
2022-10-23T15:42:33.284Z,18.90
2022-10-23T15:47:35.133Z,18.80
2022-10-23T15:52:36.926Z,18.80
2022-10-23T15:57:39.418Z,18.80
2022-10-23T16:02:43.382Z,18.80
2022-10-23T16:07:45.535Z,18.70
2022-10-23T16:12:47.380Z,18.70
2022-10-23T16:17:49.445Z,18.70
2022-10-23T16:22:51.299Z,18.70
2022-10-23T16:27:53.205Z,18.70
2022-10-23T16:32:55.110Z,18.70
2022-10-23T16:37:57.162Z,18.60
2022-10-23T16:43:02.050Z,18.60
2022-10-23T16:48:04.006Z,18.60
2022-10-23T16:53:06.111Z,18.50
2022-10-23T16:58:08.072Z,18.50
2022-10-23T17:03:12.754Z,18.50
